createdAt,value
2018-04-10T00:00:21.609Z,99.90
2018-04-10T00:02:48.525Z,99.90
2018-04-10T00:05:15.500Z,99.90
2018-04-10T00:07:42.363Z,99.90
2018-04-10T00:10:09.250Z,99.90
2018-04-10T00:12:36.197Z,99.90
2018-04-10T00:15:03.237Z,99.90
2018-04-10T00:17:30.100Z,99.90
2018-04-10T00:19:57.106Z,99.90
2018-04-10T00:22:24.051Z,99.90
2018-04-10T00:24:50.936Z,99.90
2018-04-10T00:27:17.872Z,99.90
2018-04-10T00:29:44.747Z,99.90
2018-04-10T00:32:11.690Z,99.90
2018-04-10T00:34:38.629Z,99.90
2018-04-10T00:37:05.497Z,99.90
2018-04-10T00:39:32.441Z,99.90
2018-04-10T00:41:59.386Z,99.90
2018-04-10T00:44:26.278Z,99.90
2018-04-10T00:46:53.152Z,99.90
2018-04-10T00:49:20.078Z,99.90
2018-04-10T00:51:46.992Z,99.90
2018-04-10T00:54:13.934Z,99.90
2018-04-10T00:56:40.925Z,99.90
2018-04-10T00:59:07.792Z,99.90
2018-04-10T01:01:34.674Z,99.90
2018-04-10T01:04:01.673Z,99.90
2018-04-10T01:06:28.628Z,99.90
2018-04-10T01:08:55.513Z,99.90
2018-04-10T01:11:23.301Z,99.90
2018-04-10T01:13:50.185Z,99.90
2018-04-10T01:16:17.084Z,99.90
2018-04-10T01:18:44.176Z,99.90
2018-04-10T01:21:11.048Z,99.90
2018-04-10T01:23:38.662Z,99.90
2018-04-10T01:26:05.605Z,99.90
2018-04-10T01:28:32.566Z,99.90
2018-04-10T01:30:59.500Z,99.90
2018-04-10T01:33:26.364Z,99.90
2018-04-10T01:35:53.322Z,99.90
2018-04-10T01:38:20.253Z,99.90
2018-04-10T01:40:47.248Z,99.90
2018-04-10T01:43:14.859Z,99.90
2018-04-10T01:45:41.792Z,99.90
2018-04-10T01:48:08.733Z,99.90
2018-04-10T01:50:35.595Z,99.90
2018-04-10T01:53:02.502Z,99.90
2018-04-10T01:55:29.444Z,99.90
2018-04-10T01:57:56.319Z,99.90
2018-04-10T02:00:23.234Z,99.90
2018-04-10T02:02:50.180Z,99.90
2018-04-10T02:05:17.218Z,99.90
2018-04-10T02:07:44.141Z,99.90
2018-04-10T02:10:29.236Z,99.90
2018-04-10T02:12:56.111Z,99.90
2018-04-10T02:15:22.998Z,99.90
2018-04-10T02:17:49.963Z,99.90
2018-04-10T02:20:16.854Z,99.90
2018-04-10T02:22:43.724Z,99.90
2018-04-10T02:25:10.726Z,99.90
2018-04-10T02:27:37.712Z,99.90
2018-04-10T02:30:04.645Z,99.90
2018-04-10T02:32:31.594Z,99.90
2018-04-10T02:34:58.504Z,99.90
2018-04-10T02:37:25.397Z,99.90
2018-04-10T02:39:52.450Z,99.90
2018-04-10T02:42:19.464Z,99.90
2018-04-10T02:44:46.358Z,99.90
2018-04-10T02:47:13.313Z,99.90
2018-04-10T02:49:40.942Z,99.90
2018-04-10T02:52:07.902Z,99.90
2018-04-10T02:54:34.802Z,99.90
2018-04-10T02:57:01.773Z,99.90
2018-04-10T02:59:28.682Z,99.90
2018-04-10T03:01:55.649Z,99.90
2018-04-10T03:04:22.540Z,99.90
2018-04-10T03:06:49.484Z,99.90
2018-04-10T03:09:16.439Z,99.90
2018-04-10T03:11:44.156Z,99.90
2018-04-10T03:14:11.109Z,99.90
2018-04-10T03:16:38.070Z,99.90
2018-04-10T03:19:04.963Z,99.90
2018-04-10T03:21:31.841Z,99.90
2018-04-10T03:23:58.964Z,99.90
2018-04-10T03:26:25.856Z,99.90
2018-04-10T03:28:52.774Z,99.90
2018-04-10T03:31:19.764Z,99.90
2018-04-10T03:33:46.668Z,99.90
2018-04-10T03:36:13.568Z,99.90
2018-04-10T03:38:40.520Z,99.90
2018-04-10T03:41:08.160Z,99.90
2018-04-10T03:43:35.037Z,99.90
2018-04-10T03:46:01.982Z,99.90
2018-04-10T03:48:29.030Z,99.90
2018-04-10T03:50:55.920Z,99.90
2018-04-10T03:53:22.881Z,99.90
2018-04-10T03:55:49.786Z,99.90
2018-04-10T03:58:16.660Z,99.90
2018-04-10T04:00:43.596Z,99.90
2018-04-10T04:03:10.484Z,99.90
2018-04-10T04:05:37.408Z,99.90
2018-04-10T04:08:04.333Z,99.90
2018-04-10T04:10:31.262Z,99.90
2018-04-10T04:12:58.194Z,99.90
2018-04-10T04:15:25.064Z,99.90
2018-04-10T04:17:51.977Z,99.90
2018-04-10T04:20:30.997Z,99.90
2018-04-10T04:22:58.610Z,99.90
2018-04-10T04:25:25.549Z,99.90
2018-04-10T04:28:02.489Z,99.90
2018-04-10T04:30:29.701Z,99.90
2018-04-10T04:32:56.633Z,99.90
2018-04-10T04:35:23.568Z,99.90
2018-04-10T04:37:50.503Z,99.90
2018-04-10T04:40:17.568Z,99.90
2018-04-10T04:42:57.602Z,99.90
2018-04-10T04:45:37.823Z,99.90
2018-04-10T04:48:19.359Z,99.90
2018-04-10T04:50:58.262Z,99.90
2018-04-10T04:53:41.172Z,99.90
2018-04-10T04:56:18.116Z,99.90
2018-04-10T04:59:00.939Z,99.90
2018-04-10T05:01:43.527Z,99.90
2018-04-10T05:04:26.732Z,99.90
2018-04-10T05:07:00.701Z,99.90
2018-04-10T05:09:39.108Z,99.90
2018-04-10T05:12:22.197Z,99.90
2018-04-10T05:15:06.082Z,99.90
2018-04-10T05:20:31.344Z,99.90
2018-04-10T05:23:14.739Z,99.90
2018-04-10T05:25:57.555Z,99.90
2018-04-10T05:28:34.947Z,99.90
2018-04-10T05:34:02.262Z,99.90
2018-04-10T05:39:29.928Z,99.90
2018-04-10T05:42:13.569Z,99.90
2018-04-10T05:44:54.354Z,99.90
2018-04-10T05:47:35.936Z,99.90
2018-04-10T05:53:03.611Z,99.90
2018-04-10T05:55:48.664Z,99.90
2018-04-10T05:58:27.467Z,99.90
2018-04-10T06:01:06.147Z,99.90
2018-04-10T06:03:44.613Z,99.90
2018-04-10T06:09:09.468Z,99.90
2018-04-10T06:11:49.308Z,99.90
2018-04-10T06:14:33.767Z,99.90
2018-04-10T06:17:16.335Z,99.90
2018-04-10T06:19:52.050Z,99.90
2018-04-10T06:28:01.815Z,99.90
2018-04-10T06:30:43.188Z,99.90
2018-04-10T06:33:26.252Z,99.90
2018-04-10T06:36:08.936Z,99.90
2018-04-10T06:38:53.394Z,99.90
2018-04-10T06:41:30.391Z,99.90
2018-04-10T06:44:11.860Z,99.90
2018-04-10T06:46:53.656Z,99.90
2018-04-10T06:49:39.167Z,99.90
2018-04-10T06:52:21.614Z,99.90
2018-04-10T06:55:01.819Z,99.90
2018-04-10T06:57:43.717Z,99.90
2018-04-10T07:00:25.085Z,99.90
2018-04-10T07:03:07.120Z,99.90
2018-04-10T07:05:47.659Z,99.90
2018-04-10T07:08:28.153Z,99.90
2018-04-10T07:11:07.553Z,99.90
2018-04-10T07:13:46.167Z,99.90
2018-04-10T07:16:29.120Z,99.90
2018-04-10T07:19:09.896Z,99.90
2018-04-10T07:27:17.529Z,99.90
2018-04-10T07:29:57.504Z,99.90
2018-04-10T07:32:38.862Z,99.90
2018-04-10T07:35:21.413Z,99.90
2018-04-10T07:40:52.731Z,99.90
2018-04-10T07:43:32.474Z,99.90
2018-04-10T07:46:13.574Z,99.90
2018-04-10T07:48:55.917Z,99.90
2018-04-10T07:51:34.264Z,99.90
2018-04-10T07:54:14.148Z,99.90
2018-04-10T07:56:55.422Z,99.90
2018-04-10T07:59:36.689Z,99.90
2018-04-10T08:02:17.681Z,99.90
2018-04-10T08:07:46.232Z,99.90
2018-04-10T08:10:25.304Z,99.90
2018-04-10T08:13:07.447Z,99.90
2018-04-10T08:15:48.932Z,99.90
2018-04-10T08:18:31.298Z,99.90
2018-04-10T08:26:41.181Z,99.90
2018-04-10T08:29:22.003Z,99.90
2018-04-10T08:32:05.896Z,99.90
2018-04-10T08:34:48.335Z,99.90
2018-04-10T08:37:30.167Z,99.90
2018-04-10T08:42:56.086Z,99.90
2018-04-10T08:45:39.608Z,99.90
2018-04-10T08:48:22.403Z,99.90
2018-04-10T08:51:03.994Z,99.60
2018-04-10T08:53:44.979Z,99.40
2018-04-10T08:59:13.072Z,98.00
2018-04-10T09:01:55.267Z,97.60
2018-04-10T09:04:37.791Z,96.30
2018-04-10T09:07:20.919Z,96.40
2018-04-10T09:12:43.588Z,95.10
2018-04-10T09:15:24.771Z,96.00
2018-04-10T09:18:07.994Z,96.60
2018-04-10T09:20:48.952Z,96.10
2018-04-10T09:23:30.516Z,96.80
2018-04-10T09:26:13.979Z,96.80
2018-04-10T09:28:58.058Z,98.30
2018-04-10T09:31:35.962Z,98.30
2018-04-10T09:34:18.802Z,98.20
2018-04-10T09:39:46.676Z,99.10
2018-04-10T09:42:27.259Z,99.70
2018-04-10T09:45:09.861Z,99.90
2018-04-10T09:47:50.882Z,99.90
2018-04-10T09:50:31.440Z,99.90
2018-04-10T09:53:18.059Z,99.80
2018-04-10T09:58:44.038Z,99.90
2018-04-10T10:01:25.291Z,99.90
2018-04-10T10:04:09.826Z,99.90
2018-04-10T10:06:50.820Z,99.80
2018-04-10T10:09:32.459Z,99.80
2018-04-10T10:12:14.402Z,99.70
2018-04-10T10:14:57.383Z,99.80
2018-04-10T10:17:40.694Z,99.70
2018-04-10T10:20:23.683Z,99.90
2018-04-10T10:23:03.863Z,99.90
2018-04-10T10:25:43.629Z,99.20
2018-04-10T10:28:26.527Z,99.40
2018-04-10T10:33:54.408Z,98.60
2018-04-10T10:36:38.929Z,98.60
2018-04-10T10:39:20.884Z,98.00
2018-04-10T10:42:07.160Z,97.50
2018-04-10T10:44:46.461Z,97.40
2018-04-10T10:47:29.106Z,95.80
2018-04-10T10:50:09.343Z,95.80
2018-04-10T10:52:52.248Z,95.90
2018-04-10T10:55:32.594Z,94.90
2018-04-10T10:58:13.926Z,95.00
2018-04-10T11:00:54.028Z,95.00
2018-04-10T11:03:35.916Z,94.40
2018-04-10T11:06:17.946Z,94.60
2018-04-10T11:11:40.739Z,93.30
2018-04-10T11:14:22.903Z,93.70
2018-04-10T11:17:03.800Z,91.90
2018-04-10T11:19:47.571Z,92.30
2018-04-10T11:22:29.327Z,91.70
2018-04-10T11:25:11.213Z,91.40
2018-04-10T11:27:52.797Z,91.60
2018-04-10T11:30:32.869Z,91.50
2018-04-10T11:33:14.210Z,90.90
2018-04-10T11:35:56.361Z,90.30
2018-04-10T11:41:23.095Z,89.00
2018-04-10T11:44:05.330Z,90.70
2018-04-10T11:49:32.936Z,88.10
2018-04-10T11:52:14.229Z,87.90
2018-04-10T11:54:55.159Z,89.10
2018-04-10T12:00:16.416Z,86.20
2018-04-10T12:02:53.445Z,83.40
2018-04-10T12:05:34.416Z,82.90
2018-04-10T12:08:15.453Z,83.50
2018-04-10T12:10:42.980Z,82.00
2018-04-10T12:13:11.580Z,83.40
2018-04-10T12:15:38.469Z,81.90
2018-04-10T12:18:06.210Z,82.10
2018-04-10T12:20:41.230Z,82.00
2018-04-10T12:23:13.319Z,81.60
2018-04-10T12:28:25.665Z,80.60
2018-04-10T12:30:53.346Z,78.00
2018-04-10T12:33:20.305Z,78.10
2018-04-10T12:35:48.547Z,79.30
2018-04-10T12:38:22.943Z,79.60
2018-04-10T12:40:54.114Z,79.50
2018-04-10T12:43:22.095Z,76.10
2018-04-10T12:45:48.971Z,76.20
2018-04-10T12:48:15.911Z,77.30
2018-04-10T12:50:42.857Z,75.70
2018-04-10T12:53:09.860Z,75.10
2018-04-10T12:55:47.225Z,75.20
2018-04-10T12:58:20.710Z,71.40
2018-04-10T13:00:48.134Z,72.90
2018-04-10T13:03:15.491Z,73.60
2018-04-10T13:05:42.442Z,73.60
2018-04-10T13:08:10.199Z,73.60
2018-04-10T13:10:40.903Z,73.60
2018-04-10T13:13:08.915Z,76.10
2018-04-10T13:15:35.941Z,76.00
2018-04-10T13:18:12.014Z,73.20
2018-04-10T13:20:40.413Z,73.20
2018-04-10T13:23:07.332Z,74.90
2018-04-10T13:25:34.334Z,72.00
2018-04-10T13:28:01.215Z,72.50
2018-04-10T13:30:29.664Z,72.70
2018-04-10T13:32:59.236Z,71.90
2018-04-10T13:35:26.178Z,72.00
2018-04-10T13:37:53.109Z,71.30
2018-04-10T13:40:26.487Z,71.40
2018-04-10T13:43:00.085Z,70.30
2018-04-10T13:45:32.285Z,70.30
2018-04-10T13:48:06.556Z,70.60
2018-04-10T13:50:34.897Z,71.40
2018-04-10T13:53:01.797Z,70.20
2018-04-10T13:55:28.661Z,71.10
2018-04-10T13:58:03.585Z,71.70
2018-04-10T14:00:40.860Z,71.70
2018-04-10T14:03:08.578Z,71.40
2018-04-10T14:05:35.433Z,71.50
2018-04-10T14:08:02.366Z,71.50
2018-04-10T14:10:40.665Z,70.60
2018-04-10T14:13:20.742Z,69.90
2018-04-10T14:16:02.135Z,72.50
2018-04-10T14:18:44.912Z,71.70
2018-04-10T14:21:25.978Z,72.10
2018-04-10T14:24:05.681Z,72.40
2018-04-10T14:26:45.296Z,73.00
2018-04-10T14:29:25.769Z,73.00
2018-04-10T14:32:08.599Z,74.80
2018-04-10T14:34:49.042Z,73.90
2018-04-10T14:37:28.298Z,73.80
2018-04-10T14:40:10.008Z,74.30
2018-04-10T14:42:50.885Z,75.20
2018-04-10T14:45:31.363Z,74.70
2018-04-10T14:48:14.565Z,74.50
2018-04-10T14:50:55.932Z,75.20
2018-04-10T14:53:36.546Z,75.20
2018-04-10T14:56:16.995Z,75.90
2018-04-10T14:58:58.792Z,76.30
2018-04-10T15:01:41.080Z,76.30
2018-04-10T15:04:21.069Z,76.50
2018-04-10T15:07:01.292Z,76.30
2018-04-10T15:09:43.053Z,75.40
2018-04-10T15:12:22.740Z,75.40
2018-04-10T15:15:05.685Z,76.70
2018-04-10T15:17:44.997Z,76.00
2018-04-10T15:20:25.468Z,76.10
2018-04-10T15:23:07.328Z,74.50
2018-04-10T15:25:44.862Z,74.50
2018-04-10T15:31:06.424Z,75.30
2018-04-10T15:33:46.550Z,75.90
2018-04-10T15:36:24.056Z,75.80
2018-04-10T15:38:58.246Z,75.80
2018-04-10T15:41:38.067Z,75.90
2018-04-10T15:44:19.355Z,75.20
2018-04-10T15:46:59.764Z,75.60
2018-04-10T15:49:36.194Z,75.50
2018-04-10T15:52:17.740Z,76.30
2018-04-10T15:55:00.332Z,76.30
2018-04-10T15:57:43.192Z,76.60
2018-04-10T16:00:24.451Z,77.40
2018-04-10T16:03:06.243Z,76.70
2018-04-10T16:05:48.950Z,77.40
2018-04-10T16:08:31.117Z,78.10
2018-04-10T16:11:12.202Z,78.00
2018-04-10T16:13:53.685Z,78.70
2018-04-10T16:16:34.365Z,78.70
2018-04-10T16:19:15.460Z,78.30
2018-04-10T16:24:42.654Z,78.70
2018-04-10T16:27:23.130Z,79.60
2018-04-10T16:30:01.695Z,79.60
2018-04-10T16:32:46.432Z,79.30
2018-04-10T16:35:26.163Z,79.40
2018-04-10T16:38:03.584Z,79.60
2018-04-10T16:40:41.215Z,78.80
2018-04-10T16:43:22.102Z,78.70
2018-04-10T16:46:03.725Z,79.40
2018-04-10T16:48:43.862Z,79.80
2018-04-10T16:51:24.757Z,80.90
2018-04-10T16:54:05.670Z,82.20
2018-04-10T16:56:46.647Z,82.90
2018-04-10T16:59:15.797Z,84.20
2018-04-10T17:01:42.760Z,83.80
2018-04-10T17:04:09.628Z,84.00
2018-04-10T17:06:36.513Z,83.50
2018-04-10T17:09:03.627Z,83.50
2018-04-10T17:11:30.568Z,84.40
2018-04-10T17:13:57.551Z,83.30
2018-04-10T17:16:24.499Z,83.90
2018-04-10T17:18:51.440Z,84.80
2018-04-10T17:21:18.361Z,85.60
2018-04-10T17:23:45.367Z,86.80
2018-04-10T17:26:12.369Z,88.00
2018-04-10T17:28:40.113Z,90.60
2018-04-10T17:31:07.029Z,90.50
2018-04-10T17:33:34.846Z,91.10
2018-04-10T17:36:02.580Z,92.30
2018-04-10T17:38:29.633Z,92.30
2018-04-10T17:40:56.604Z,92.60
2018-04-10T17:43:23.564Z,93.30
2018-04-10T17:45:51.300Z,93.80
2018-04-10T17:48:18.234Z,93.90
2018-04-10T17:50:45.199Z,94.30
2018-04-10T17:53:12.127Z,94.20
2018-04-10T17:55:39.066Z,94.20
2018-04-10T17:58:05.941Z,94.50
2018-04-10T18:00:32.857Z,94.60
2018-04-10T18:02:59.798Z,94.40
2018-04-10T18:05:26.702Z,94.50
2018-04-10T18:07:53.640Z,94.30
2018-04-10T18:10:21.275Z,94.50
2018-04-10T18:12:48.233Z,94.50
2018-04-10T18:15:15.102Z,94.60
2018-04-10T18:17:42.112Z,94.60
2018-04-10T18:20:09.110Z,94.70
2018-04-10T18:22:36.038Z,95.00
2018-04-10T18:25:02.954Z,95.20
2018-04-10T18:27:29.895Z,95.40
2018-04-10T18:29:56.937Z,95.60
2018-04-10T18:32:23.807Z,95.90
2018-04-10T18:34:50.673Z,95.70
2018-04-10T18:37:17.633Z,95.40
2018-04-10T18:39:44.604Z,95.50
2018-04-10T18:42:11.486Z,95.20
2018-04-10T18:44:38.425Z,95.30
2018-04-10T18:47:05.301Z,95.60
2018-04-10T18:49:32.273Z,95.00
2018-04-10T18:51:59.165Z,94.80
2018-04-10T18:54:26.113Z,95.00
2018-04-10T18:56:53.044Z,94.90
2018-04-10T18:59:20.008Z,95.70
2018-04-10T19:01:46.897Z,96.00
2018-04-10T19:04:13.865Z,96.00
2018-04-10T19:06:40.844Z,96.50
2018-04-10T19:09:07.863Z,97.00
2018-04-10T19:11:34.798Z,97.40
2018-04-10T19:14:01.767Z,97.80
2018-04-10T19:16:28.646Z,97.80
2018-04-10T19:18:55.645Z,98.30
2018-04-10T19:21:22.579Z,98.30
2018-04-10T19:23:49.544Z,98.60
2018-04-10T19:26:16.413Z,98.60
2018-04-10T19:28:43.352Z,98.60
2018-04-10T19:31:10.312Z,98.80
2018-04-10T19:33:38.040Z,98.80
2018-04-10T19:36:04.962Z,98.80
2018-04-10T19:38:31.907Z,98.70
2018-04-10T19:40:58.793Z,98.90
2018-04-10T19:43:25.750Z,98.90
2018-04-10T19:45:52.634Z,98.90
2018-04-10T19:48:19.591Z,98.90
2018-04-10T19:50:46.527Z,98.60
2018-04-10T19:53:13.475Z,98.80
2018-04-10T19:55:40.360Z,98.80
2018-04-10T19:58:07.353Z,98.90
2018-04-10T20:00:34.304Z,98.80
2018-04-10T20:03:01.220Z,98.80
2018-04-10T20:05:28.924Z,98.60
2018-04-10T20:07:55.872Z,98.50
2018-04-10T20:10:22.803Z,98.50
2018-04-10T20:12:49.673Z,98.60
2018-04-10T20:15:16.613Z,98.70
2018-04-10T20:17:43.466Z,98.60
2018-04-10T20:20:10.525Z,98.70
2018-04-10T20:22:37.505Z,98.50
2018-04-10T20:25:04.373Z,98.80
2018-04-10T20:27:31.320Z,98.90
2018-04-10T20:29:58.274Z,99.40
2018-04-10T20:32:25.157Z,99.80
2018-04-10T20:34:52.114Z,99.90
2018-04-10T20:37:18.980Z,99.90
2018-04-10T20:39:46.681Z,99.90
2018-04-10T20:42:13.564Z,99.90
2018-04-10T20:44:40.477Z,99.90
2018-04-10T20:47:07.497Z,99.90
2018-04-10T20:49:35.174Z,99.90
2018-04-10T20:52:02.140Z,99.90
2018-04-10T20:54:28.997Z,99.90
2018-04-10T20:56:55.936Z,99.90
2018-04-10T20:59:22.806Z,99.90
2018-04-10T21:01:49.747Z,99.90
2018-04-10T21:04:16.621Z,99.90
2018-04-10T21:06:43.563Z,99.90
2018-04-10T21:09:10.505Z,99.90
2018-04-10T21:11:37.500Z,99.90
2018-04-10T21:14:04.489Z,99.90
2018-04-10T21:16:31.368Z,99.90
2018-04-10T21:18:58.243Z,99.90
2018-04-10T21:21:25.172Z,99.90
2018-04-10T21:23:52.033Z,99.90
2018-04-10T21:26:18.960Z,99.90
2018-04-10T21:28:45.878Z,99.90
2018-04-10T21:31:12.816Z,99.90
2018-04-10T21:33:39.756Z,99.90
2018-04-10T21:36:06.620Z,99.90
2018-04-10T21:38:33.546Z,99.90
2018-04-10T21:41:02.350Z,99.90
2018-04-10T21:43:30.787Z,99.90
2018-04-10T21:45:57.727Z,99.90
2018-04-10T21:48:24.663Z,99.90
2018-04-10T21:50:51.626Z,99.90
2018-04-10T21:53:18.503Z,99.90
2018-04-10T21:55:46.192Z,99.90
2018-04-10T21:58:13.122Z,99.90
2018-04-10T22:00:40.834Z,99.90
2018-04-10T22:03:08.653Z,99.90
2018-04-10T22:05:36.326Z,99.90
2018-04-10T22:08:03.274Z,99.90
2018-04-10T22:10:30.203Z,99.90
2018-04-10T22:12:57.877Z,99.90
2018-04-10T22:15:25.569Z,99.90
2018-04-10T22:17:52.528Z,99.90
2018-04-10T22:20:19.512Z,99.90
2018-04-10T22:22:46.454Z,99.90
2018-04-10T22:25:13.422Z,99.90
2018-04-10T22:27:41.057Z,99.90
2018-04-10T22:30:08.051Z,99.90
2018-04-10T22:32:34.902Z,99.90
2018-04-10T22:35:01.960Z,99.90
2018-04-10T22:37:28.882Z,99.90
2018-04-10T22:39:55.831Z,99.90
2018-04-10T22:42:22.752Z,99.90
2018-04-10T22:44:49.597Z,99.90
2018-04-10T22:47:16.597Z,99.90
2018-04-10T22:49:43.465Z,99.90
2018-04-10T22:52:10.403Z,99.90
2018-04-10T22:54:37.418Z,99.90
2018-04-10T22:57:04.288Z,99.90
2018-04-10T22:59:31.238Z,99.90
2018-04-10T23:01:58.103Z,99.90
2018-04-10T23:04:25.794Z,99.90
2018-04-10T23:06:52.661Z,99.90
2018-04-10T23:09:19.617Z,99.90
2018-04-10T23:11:46.558Z,99.90
2018-04-10T23:14:13.430Z,99.90
2018-04-10T23:16:40.357Z,99.90
2018-04-10T23:19:07.362Z,99.90
2018-04-10T23:21:34.279Z,99.90
2018-04-10T23:24:01.198Z,99.90
2018-04-10T23:26:28.061Z,99.90
2018-04-10T23:28:55.045Z,99.90
2018-04-10T23:31:21.902Z,99.90
2018-04-10T23:33:49.662Z,99.90
2018-04-10T23:36:16.558Z,99.90
2018-04-10T23:38:43.525Z,99.90
2018-04-10T23:41:10.391Z,99.90
2018-04-10T23:43:37.379Z,99.90
2018-04-10T23:46:04.240Z,99.90
2018-04-10T23:48:31.238Z,99.90
2018-04-10T23:50:58.108Z,99.90
2018-04-10T23:53:25.007Z,99.90
2018-04-10T23:55:51.961Z,99.90
2018-04-10T23:58:18.810Z,99.90
